Date,TemperatureHighF,TemperatureAvgF,TemperatureLowF,DewpointHighF,DewpointAvgF,DewpointLowF,HumidityHigh,HumidityAvg,HumidityLow,PressureMaxIn,PressureMinIn,WindSpeedMaxMPH,WindSpeedAvgMPH,GustSpeedMaxMPH,PrecipitationSumIn
2014-1-1,51,38,26,29,24,21,91,61,32,0.00,40.00,8,4,13,0.00
2014-1-2,42,30,18,42,27,10,100,86,62,0.00,40.00,14,7,30,0.41
2014-1-3,29,18,9,12,8,4,83,64,41,0.00,40.00,11,4,22,0.05
2014-1-4,46,33,20,29,12,-100,71,45,26,0.00,40.00,9,6,19,0.00
2014-1-5,57,42,19,50,36,15,95,80,60,0.00,40.00,13,8,29,0.50
2014-1-6,19,7,-1,15,-4,-11,85,60,43,0.00,40.00,9,7,23,0.20
2014-1-7,20,8,-3,3,-4,-10,75,57,39,0.00,40.00,7,4,16,0.00
2014-1-8,38,26,15,20,10,2,62,49,38,0.00,40.00,7,5,16,0.01
2014-1-9,44,35,30,38,24,15,86,65,30,0.00,40.00,6,3,11,0.08
2014-1-10,58,51,42,53,47,38,94,87,80,0.00,40.00,10,6,22,0.01
2014-1-11,58,50,40,55,41,-100,100,77,54,0.00,40.00,11,7,22,1.16
2014-1-12,56,44,34,38,33,27,98,68,39,0.00,40.00,7,5,15,0.13
2014-1-13,52,49,46,49,41,28,100,78,45,0.00,40.00,9,7,22,1.12
2014-1-14,54,45,36,48,38,33,100,78,45,0.00,40.00,13,5,23,0.32
2014-1-15,38,30,21,34,19,11,87,64,45,0.00,40.00,7,5,14,0.00
2014-1-16,44,31,18,31,18,13,88,63,40,0.00,40.00,9,5,19,0.04
2014-1-17,36,28,22,32,20,8,98,73,54,0.00,40.00,9,5,19,0.06
2014-1-18,41,28,16,22,12,-100,83,55,34,0.00,40.00,10,6,22,0.00
2014-1-19,44,38,31,32,26,19,90,63,43,0.00,40.00,11,7,18,0.00
2014-1-20,59,45,36,30,26,22,61,48,31,0.00,40.00,11,6,18,0.00
2014-1-21,41,26,11,31,19,-2,95,73,52,0.00,40.00,18,7,30,0.00
2014-1-22,21,14,4,7,1,-3,80,57,45,0.00,40.00,6,3,11,0.00
2014-1-23,20,14,5,12,1,-4,78,56,38,0.00,40.00,13,7,26,0.00
2014-1-24,26,14,1,3,-1,-4,80,53,31,0.00,40.00,13,6,23,0.00
2014-1-25,43,31,23,25,10,-100,70,45,33,0.00,40.00,15,10,25,0.02
2014-1-26,58,40,21,30,19,5,64,43,32,0.00,40.00,15,8,27,0.01
2014-1-27,49,26,14,29,6,-8,65,43,27,0.00,40.00,17,10,27,0.00
2014-1-28,15,12,7,0,-3,-7,62,50,40,0.00,40.00,9,5,17,0.00
2014-1-29,28,14,1,-3,-6,-9,73,44,24,0.00,40.00,5,3,9,0.00
2014-1-30,43,25,11,4,0,-5,59,36,14,0.00,40.00,8,5,17,0.00
2014-1-31,46,39,32,23,14,2,42,36,26,0.00,40.00,8,4,14,0.00
2014-2-1,63,51,43,42,26,-100,66,40,18,0.00,40.00,12,6,20,0.00
2014-2-2,56,41,32,49,38,31,99,91,65,0.00,40.00,10,7,19,1.18
2014-2-3,32,30,29,32,29,27,99,96,94,0.00,40.00,10,5,21,1.03
2014-2-4,38,33,30,37,33,29,100,99,93,0.00,40.00,9,4,15,1.38
2014-2-5,40,30,25,40,27,19,100,89,73,0.00,40.00,9,7,19,1.19
2014-2-6,26,24,19,22,19,16,89,83,77,0.00,40.00,8,6,16,0.00
2014-2-7,27,21,15,18,15,12,89,78,62,0.00,40.00,7,4,12,0.01
2014-2-8,38,31,23,31,26,17,93,81,71,0.00,40.00,5,2,11,0.03
2014-2-9,36,33,29,35,31,26,100,91,85,0.00,40.00,6,4,12,0.08
2014-2-10,29,25,20,26,18,12,88,74,54,0.00,40.00,9,7,17,0.02
2014-2-11,37,24,14,15,12,7,78,61,37,0.00,40.00,7,6,13,0.00
2014-2-12,41,30,20,23,18,12,78,62,45,0.00,40.00,6,3,11,0.00
2014-2-13,51,35,22,23,18,10,84,54,23,0.00,40.00,6,5,12,0.00
2014-2-14,52,40,29,42,31,23,97,72,43,0.00,40.00,12,8,25,0.53
2014-2-15,35,27,19,28,16,-100,97,68,52,0.00,40.00,11,5,23,0.35
2014-2-16,52,39,30,31,26,21,85,62,44,0.00,40.00,7,5,17,0.00
2014-2-17,59,43,30,53,35,27,96,76,42,0.00,40.00,11,5,22,0.35
2014-2-18,63,50,36,50,33,25,87,55,23,0.00,40.00,9,5,17,0.05
2014-2-19,63,57,49,57,44,31,97,64,34,0.00,40.00,13,6,21,0.34
2014-2-20,73,63,50,58,52,32,97,71,50,0.00,40.00,17,9,32,0.75
2014-2-21,55,45,39,52,24,12,96,49,19,0.00,40.00,10,6,27,0.91
2014-2-22,67,51,39,24,18,-100,43,29,18,0.00,40.00,7,5,13,0.00
2014-2-23,66,51,33,34,29,20,88,45,28,0.00,40.00,12,7,20,0.00
2014-2-24,45,34,25,27,15,10,86,49,25,0.00,40.00,8,5,17,0.00
2014-2-25,47,37,31,20,16,14,63,44,28,0.00,40.00,9,5,16,0.00
2014-2-26,32,26,18,20,8,0,70,49,25,0.00,40.00,12,7,21,0.00
2014-2-27,41,27,17,13,7,2,64,44,27,0.00,40.00,7,6,19,0.00
2014-2-28,55,36,17,26,6,1,63,33,11,0.00,40.00,10,3,23,0.00
2014-3-1,59,49,40,42,34,-100,71,58,45,0.00,40.00,10,5,23,0.00
2014-3-2,60,45,31,53,39,30,99,84,64,0.00,40.00,14,6,28,1.14
2014-3-3,32,21,13,31,18,10,97,88,79,0.00,40.00,0,0,0,1.02
2014-3-4,31,23,13,29,21,9,99,90,85,0.00,40.00,0,0,0,0.12
2014-3-5,34,30,27,34,30,27,100,99,96,0.00,40.00,5,1,9,0.16
2014-3-6,48,35,27,37,29,25,96,79,63,0.00,40.00,6,4,11,0.01
2014-3-7,61,43,28,36,30,25,92,63,35,0.00,40.00,8,3,14,0.01
2014-3-8,65,51,41,42,34,-100,75,56,37,0.00,40.00,8,5,17,0.00
2014-3-9,59,45,37,39,32,28,86,63,33,0.00,40.00,8,5,17,0.00
2014-3-10,68,54,39,44,37,28,75,54,34,0.00,40.00,9,6,16,0.00
2014-3-11,76,62,48,52,44,39,82,55,30,0.00,40.00,9,7,16,0.00
2014-3-12,66,48,33,59,40,21,99,76,52,0.00,40.00,14,10,31,0.13
2014-3-13,49,37,27,27,20,15,84,53,26,0.00,40.00,10,5,20,0.01
2014-3-14,63,51,38,34,27,16,52,40,28,0.00,40.00,14,8,26,0.00
2014-3-15,71,55,44,41,30,-100,67,43,18,0.00,40.00,8,4,14,0.00
2014-3-16,52,43,33,45,36,26,99,81,36,0.00,40.00,9,5,19,0.71
2014-3-17,37,33,28,33,27,-100,98,86,80,0.00,40.00,10,5,16,0.09
2014-3-18,57,46,35,46,40,34,100,83,63,0.00,40.00,12,4,22,0.01
2014-3-19,61,53,48,50,43,36,89,72,42,0.00,40.00,12,9,25,0.01
2014-3-20,61,45,32,35,27,-100,95,56,24,0.00,40.00,6,3,20,0.00
2014-3-21,69,54,40,33,24,-100,56,35,18,0.00,40.00,10,6,16,0.00
2014-3-22,65,55,47,35,29,-100,51,39,31,0.00,40.00,9,6,18,0.00
2014-3-23,52,45,38,33,28,21,83,54,36,0.00,40.00,12,8,22,0.01
2014-3-24,51,46,40,19,16,14,40,30,22,0.00,40.00,7,5,14,0.00
2014-3-25,40,34,28,26,18,7,83,53,27,0.00,40.00,13,8,29,0.00
2014-3-26,49,34,21,15,11,7,69,43,18,0.00,40.00,6,4,10,0.00
2014-3-27,64,50,36,45,20,11,82,34,18,0.00,40.00,13,6,25,0.18
2014-3-28,68,59,50,58,54,44,97,82,69,0.00,40.00,9,5,21,0.52
2014-3-29,58,47,39,54,43,-100,99,91,85,0.00,40.00,12,6,24,0.58
2014-3-30,60,46,38,35,32,28,87,61,32,0.00,40.00,10,5,20,0.04
2014-3-31,74,56,36,32,27,23,76,39,16,0.00,40.00,6,3,12,0.00
2014-4-1,81,70,61,49,40,26,44,33,24,0.00,40.00,11,6,18,0.00
2014-4-2,79,68,59,61,49,37,97,53,36,0.00,40.00,10,5,16,0.31
2014-4-3,72,65,58,64,60,58,100,85,68,0.00,40.00,11,6,22,2.26
2014-4-4,70,61,44,60,52,34,100,74,51,0.00,40.00,11,8,24,0.82
2014-4-5,56,46,41,35,30,-100,69,57,40,0.00,40.00,9,6,16,0.05
2014-4-6,68,52,36,49,34,30,97,55,27,0.00,40.00,4,3,10,0.20
2014-4-7,65,54,45,63,52,42,100,91,72,0.00,40.00,15,6,29,0.38
2014-4-8,63,50,40,48,43,40,100,78,46,0.00,40.00,8,5,17,0.02
2014-4-9,66,54,43,45,37,27,96,60,26,0.00,40.00,7,4,16,0.02
2014-4-10,75,63,47,41,36,28,51,38,28,0.00,40.00,14,7,25,0.01
2014-4-11,77,65,55,57,46,37,100,54,36,0.00,40.00,11,8,23,0.11
2014-4-12,80,65,52,59,51,-100,100,69,41,0.00,40.00,9,5,20,0.11
2014-4-13,81,72,65,55,50,44,66,47,32,0.00,40.00,13,8,22,0.00
2014-4-14,72,67,60,58,54,46,81,65,39,0.00,40.00,12,9,27,0.11
2014-4-15,46,39,33,43,29,19,100,71,39,0.00,40.00,12,9,25,0.67
2014-4-16,61,44,29,30,24,19,76,49,27,0.00,40.00,5,3,11,0.01
2014-4-17,70,56,42,34,31,27,62,39,24,0.00,40.00,6,4,13,0.00
2014-4-18,68,58,52,46,41,34,66,54,44,0.00,40.00,3,2,9,0.00
2014-4-19,75,61,49,45,39,-100,77,49,28,0.00,40.00,10,5,22,0.00
2014-4-20,81,64,48,47,41,35,77,45,27,0.00,40.00,5,3,12,0.00
2014-4-21,81,68,56,52,46,40,62,47,33,0.00,40.00,8,4,14,0.00
2014-4-22,77,66,57,63,53,35,97,63,42,0.00,40.00,10,5,18,0.06
2014-4-23,67,56,44,36,34,30,67,45,28,0.00,40.00,8,5,17,0.02
2014-4-24,79,62,41,48,39,34,85,46,22,0.00,40.00,8,4,15,0.00
2014-4-25,72,62,55,62,51,35,100,71,33,0.00,40.00,10,5,23,0.46
2014-4-26,81,62,48,46,42,38,84,53,26,0.00,40.00,6,3,10,0.13
2014-4-28,67,66,64,66,66,64,100,99,95,0.00,40.00,6,4,19,0.90
2014-4-29,78,65,54,64,57,47,100,79,43,0.00,40.00,11,5,24,2.09
2014-4-30,72,60,52,60,52,43,100,79,45,0.00,40.00,8,4,16,0.23
2014-5-1,65,54,46,45,39,34,89,60,33,0.00,40.00,8,5,17,0.00
2014-5-2,65,54,43,44,40,37,95,61,39,0.00,40.00,8,3,17,0.00
2014-5-3,77,59,44,45,38,-100,86,53,26,0.00,40.00,8,4,16,0.00
2014-5-4,86,70,52,55,48,42,73,48,25,0.00,40.00,7,4,16,0.00
2014-5-5,86,74,64,56,52,48,61,46,31,0.00,40.00,9,5,16,0.00
2014-5-6,87,74,62,61,52,47,64,49,30,0.00,40.00,6,4,15,0.00
2014-5-13,83,74,68,61,60,59,74,63,48,0.00,40.00,4,2,11,0.00
2014-5-14,76,67,62,71,65,59,100,94,74,0.00,40.00,6,3,18,2.76
2014-5-15,63,53,46,63,48,41,100,84,54,0.00,40.00,8,4,15,1.17
2014-5-16,61,51,44,52,42,33,100,76,36,0.00,40.00,8,3,16,0.13
2014-5-17,62,50,43,47,42,-100,99,77,50,0.00,40.00,4,2,9,0.02
2014-5-18,70,57,44,48,44,41,98,67,36,0.00,40.00,5,2,10,0.00
2014-5-19,77,59,44,55,42,-100,98,64,34,0.00,40.00,4,2,10,0.00
2014-5-20,84,70,57,62,54,-100,97,64,36,0.00,40.00,9,5,21,0.00
2014-5-21,85,74,63,67,60,52,74,61,52,0.00,40.00,7,4,17,0.00
2014-5-22,87,72,67,72,63,-100,100,78,56,0.00,40.00,8,3,15,0.25
2014-5-23,81,71,62,67,62,58,100,76,54,0.00,40.00,6,3,20,0.25
2014-5-24,82,68,56,60,53,-100,98,65,33,0.00,40.00,4,2,11,0.00
2014-5-25,83,70,59,68,60,54,94,73,53,0.00,40.00,3,1,7,0.00
2014-5-26,85,73,63,71,66,61,95,80,54,0.00,40.00,5,3,11,0.00
2014-5-27,88,76,67,70,66,62,91,72,45,0.00,40.00,5,3,11,0.00
2014-5-28,87,76,67,69,66,62,91,72,47,0.00,40.00,4,3,11,0.00
2014-5-29,85,73,63,69,66,62,100,80,54,0.00,40.00,6,2,13,0.00
2014-5-30,89,73,65,71,67,64,100,85,52,0.00,40.00,5,2,10,0.13
2014-5-31,88,75,65,73,66,-100,100,80,51,0.00,40.00,5,2,11,0.13
2014-6-1,83,74,67,73,69,66,100,85,63,0.00,40.00,6,3,15,0.06
2014-6-2,82,78,72,65,64,62,74,62,56,0.00,40.00,6,4,16,0.02
2014-6-3,83,75,67,72,68,63,95,78,60,0.00,40.00,4,3,10,0.01
2014-6-4,85,77,69,72,70,68,100,79,60,0.00,40.00,8,4,18,0.15
2014-6-5,72,70,67,70,68,64,100,94,87,0.00,40.00,8,3,18,0.25
2014-6-6,83,73,65,70,66,64,100,82,55,0.00,40.00,7,2,12,0.01
2014-6-7,86,74,61,71,63,-100,100,75,52,0.00,40.00,5,2,14,0.00
2014-6-8,75,70,63,66,63,60,96,79,61,0.00,40.00,8,4,15,0.00
2014-6-9,78,67,60,67,64,60,100,91,70,0.00,40.00,3,1,7,0.04
2014-6-10,80,70,64,70,68,64,100,91,65,0.00,40.00,5,4,14,0.51
2014-6-11,78,70,66,70,66,64,100,90,63,0.00,40.00,6,4,15,0.83
2014-6-12,83,73,64,69,66,64,100,82,56,0.00,40.00,6,3,10,0.40
2014-6-13,74,68,62,68,65,56,100,89,64,0.00,40.00,8,3,15,0.57
2014-6-14,81,66,54,58,52,-100,98,68,40,0.00,40.00,5,2,11,0.01
2014-6-15,88,75,60,72,64,57,94,71,47,0.00,40.00,4,2,10,0.00
2014-6-16,91,79,67,70,66,63,97,69,40,0.00,40.00,4,2,9,0.00
2014-6-17,92,80,68,74,69,64,91,70,51,0.00,40.00,5,3,12,0.00
2014-6-18,91,80,69,73,70,67,99,74,49,0.00,40.00,4,2,11,0.00
2014-6-19,92,81,71,74,71,67,99,74,44,0.00,40.00,5,2,12,0.00
2014-6-20,90,78,70,74,70,62,95,78,46,0.00,40.00,6,3,23,0.05
2014-6-21,87,74,68,75,67,-100,100,83,60,0.00,40.00,5,2,12,0.03
2014-6-22,91,78,65,73,68,65,100,74,45,0.00,40.00,4,2,9,0.00
2014-6-23,92,76,69,75,70,66,95,81,57,0.00,40.00,6,2,16,0.29
2014-6-24,85,75,69,74,70,68,97,85,69,0.00,40.00,5,4,13,0.12
2014-6-25,86,77,70,72,68,63,100,77,48,0.00,40.00,6,4,13,0.03
2014-6-26,87,78,68,71,67,64,91,72,49,0.00,40.00,3,2,6,0.01
2014-6-27,88,76,69,75,69,66,99,81,55,0.00,40.00,4,1,9,0.00
2014-6-28,85,74,69,75,67,-100,100,84,62,0.00,40.00,4,2,9,0.15
2014-6-29,82,75,69,74,71,68,100,89,70,0.00,40.00,5,3,10,0.58
2014-6-30,90,79,69,77,73,69,100,85,64,0.00,40.00,4,3,11,0.44
2014-7-1,92,81,70,76,73,65,98,78,56,0.00,40.00,9,4,24,0.10
2014-7-2,87,76,67,70,68,65,100,79,53,0.00,40.00,6,3,11,0.10
2014-7-3,77,70,62,67,59,56,89,71,51,0.00,40.00,8,5,14,0.00
2014-7-4,80,68,58,60,55,50,100,68,39,0.00,40.00,8,4,16,0.00
2014-7-5,87,69,52,63,53,-100,98,65,36,0.00,40.00,4,2,8,0.00
2014-7-6,88,77,63,66,63,61,95,66,43,0.00,40.00,5,3,11,0.00
2014-7-7,90,79,67,68,66,62,91,66,47,0.00,40.00,8,4,21,0.01
2014-7-8,89,78,71,72,69,66,88,76,51,0.00,40.00,6,4,13,0.03
2014-7-9,86,77,69,72,68,61,99,76,47,0.00,40.00,5,3,10,0.09
2014-7-10,87,76,64,66,63,59,99,70,39,0.00,40.00,5,2,10,0.00
2014-7-11,91,77,63,69,64,60,98,68,36,0.00,40.00,4,1,8,0.00
2014-7-12,95,79,63,70,64,59,95,64,31,0.00,40.00,4,2,9,0.00
2014-7-13,94,82,69,72,66,60,86,61,42,0.00,40.00,6,3,13,0.00
2014-7-14,90,80,70,75,70,66,98,73,45,0.00,40.00,6,4,15,0.36
2014-7-15,80,72,61,69,60,49,99,72,41,0.00,40.00,9,5,16,0.42
2014-7-16,76,64,53,56,52,49,98,70,41,0.00,40.00,7,3,13,0.00
2014-7-17,82,69,55,59,54,51,97,64,36,0.00,40.00,6,3,13,0.00
2014-7-18,67,64,61,66,61,55,99,91,74,0.00,40.00,3,1,5,0.12
2014-7-19,73,66,63,71,66,63,100,98,90,0.00,40.00,4,2,9,0.40
2014-7-20,86,74,69,71,69,66,100,87,51,0.00,40.00,4,1,8,0.07
2014-7-21,90,77,64,73,69,64,100,77,50,0.00,40.00,5,1,7,0.01
2014-7-22,92,80,70,74,72,69,100,78,47,0.00,40.00,4,2,10,0.00
2014-7-23,91,77,71,75,71,64,100,84,53,0.00,40.00,5,3,26,0.55
2014-7-24,83,72,63,71,66,58,100,84,52,0.00,40.00,7,4,13,0.40
2014-7-25,84,68,56,64,60,56,100,77,46,0.00,40.00,5,1,8,0.01
2014-7-26,91,74,63,71,64,61,93,71,45,0.00,40.00,5,3,11,0.00
2014-7-27,94,80,71,77,72,68,97,80,53,0.00,40.00,9,5,21,0.11
2014-7-28,80,72,63,70,61,56,96,70,46,0.00,40.00,9,4,18,0.10
2014-7-29,77,67,55,57,54,51,91,66,43,0.00,40.00,8,5,16,0.00
2014-7-30,82,67,55,62,57,54,97,73,38,0.00,40.00,5,1,10,0.00
2014-7-31,87,67,58,63,56,56,95,70,37,0.00,40.00,3,1,8,0.00
2014-8-1,87,72,60,66,60,55,97,71,34,0.00,40.00,5,1,10,0.00
2014-8-2,89,75,63,69,59,56,97,61,34,0.00,40.00,8,2,15,0.00
2014-8-3,89,73,62,65,60,54,97,68,32,0.00,40.00,6,2,14,0.00
2014-8-4,89,72,58,64,59,56,97,69,34,0.00,40.00,4,1,12,0.00
2014-8-5,93,75,61,67,60,56,95,66,29,0.00,40.00,5,2,10,0.00
2014-8-6,94,81,69,70,64,60,81,61,35,0.00,40.00,6,3,15,0.00
2014-8-7,94,83,69,69,65,63,98,57,39,0.00,40.00,9,3,15,0.65
2014-8-8,87,76,69,74,71,68,100,86,55,0.00,40.00,5,2,11,0.66
2014-8-9,87,74,69,74,70,69,100,86,60,0.00,40.00,6,3,17,0.03
2014-8-10,88,79,71,75,71,67,100,79,52,0.00,40.00,5,2,11,0.05
2014-8-11,79,74,71,77,72,69,100,95,82,0.00,40.00,5,2,13,1.92
2014-8-12,83,74,70,75,68,57,100,86,45,0.00,40.00,8,3,15,0.08
2014-8-13,76,64,57,60,58,55,97,82,56,0.00,40.00,8,3,12,0.00
2014-8-14,85,67,57,64,59,57,100,79,41,0.00,40.00,4,1,8,0.00
2014-8-15,84,70,61,67,63,60,97,81,50,0.00,40.00,5,2,13,0.00
2014-8-16,86,73,65,70,67,64,98,82,56,0.00,40.00,3,1,8,0.00
2014-8-17,76,73,70,73,70,67,100,93,79,0.00,40.00,4,3,15,1.04
2014-8-18,86,76,70,74,71,68,98,85,60,0.00,40.00,4,3,12,0.07
2014-8-19,88,77,71,75,72,71,100,85,59,0.00,40.00,3,3,8,0.07
2014-8-20,91,75,68,79,72,66,99,91,69,0.00,40.00,4,3,18,0.07
2014-8-21,93,78,67,75,70,66,99,80,53,0.00,40.00,4,3,11,0.06
2014-8-22,93,81,72,76,73,70,97,77,57,0.00,40.00,4,3,12,0.01
2014-8-23,94,78,72,75,70,70,99,77,54,0.00,40.00,9,3,18,0.48
2014-8-24,87,77,70,75,73,70,100,88,66,0.00,40.00,5,2,11,0.54
2014-8-25,90,78,72,77,72,71,100,85,53,0.00,40.00,3,2,8,0.68
2014-8-26,90,77,70,73,72,70,100,85,56,0.00,40.00,4,1,9,0.34
2014-8-27,91,77,68,76,71,68,100,84,51,0.00,40.00,4,1,9,0.00
2014-8-28,89,79,69,77,73,69,100,84,61,0.00,40.00,5,2,12,0.00
2014-8-29,92,78,69,74,67,61,100,73,37,0.00,40.00,5,2,11,0.00
2014-8-30,83,73,68,73,67,64,99,80,65,0.00,40.00,5,2,11,0.51
2014-8-31,80,74,70,74,71,70,100,92,76,0.00,40.00,6,3,11,0.82
2014-9-1,88,79,71,74,71,66,100,78,53,0.00,40.00,6,4,13,0.01
2014-9-2,90,77,70,76,71,68,100,83,58,0.00,40.00,6,3,20,0.23
2014-9-3,87,75,71,76,72,69,100,89,58,0.00,40.00,5,2,9,0.27
2014-9-4,88,77,68,76,71,68,100,84,56,0.00,40.00,4,1,8,0.05
2014-9-5,91,78,71,75,72,70,100,83,50,0.00,40.00,4,2,8,0.00
2014-9-6,87,76,70,77,70,68,100,83,57,0.00,40.00,8,3,15,0.24
2014-9-7,72,69,64,68,65,62,99,88,80,0.00,40.00,6,3,11,0.24
2014-9-8,77,68,64,68,65,63,99,91,67,0.00,40.00,3,1,6,0.00
2014-9-9,87,72,60,71,65,60,100,83,51,0.00,40.00,4,1,8,0.00
2014-9-10,86,78,70,74,70,69,97,79,64,0.00,40.00,7,5,16,0.00
2014-9-11,81,76,67,73,70,65,96,83,74,0.00,40.00,7,4,13,0.00
2014-9-12,71,65,61,65,62,59,96,90,77,0.00,40.00,7,5,12,0.00
2014-9-13,64,60,55,60,55,51,96,82,69,0.00,40.00,7,5,15,0.00
2014-9-14,78,62,51,60,54,49,93,78,51,0.00,40.00,5,2,10,0.00
2014-9-15,73,63,53,66,60,52,99,89,64,0.00,40.00,5,1,8,0.01
2014-9-16,73,65,57,64,61,54,95,89,68,0.00,40.00,6,3,11,0.01
2014-9-17,73,60,53,59,56,53,100,87,53,0.00,40.00,3,2,9,0.00
2014-9-18,77,62,54,62,58,54,100,88,53,0.00,40.00,2,1,9,0.00
2014-9-19,84,66,54,64,59,53,100,80,44,0.00,40.00,3,1,8,0.00
2014-9-20,86,72,65,66,63,62,96,74,50,0.00,40.00,6,3,13,0.00
2014-9-21,81,69,60,70,62,46,96,80,47,0.00,40.00,7,4,16,0.00
2014-9-22,70,57,51,50,48,44,90,76,42,0.00,40.00,7,4,16,0.00